Time;durP1;ratioP1;P1;durP2;ratioP2;P2;SDS_P1;SDS_P2;PMS_P1;PMS_P2;Temp;Humidity;BMP_temperature;BMP_pressure;BME280_temperature;BME280_humidity;BME280_pressure;Samples;Min_cycle;Max_cycle;Signal;HPM_P1;HPM_P2
2023/09/15 00:00:26;;;;;;;7.50;3.10;;;;;;;12.88;97.61;101490.94;5036967;28;20078;-59
2023/09/15 00:02:55;;;;;;;3.83;2.55;;;;;;;12.85;97.81;101478.81;5036848;28;20504;-59
2023/09/15 00:05:20;;;;;;;5.53;2.88;;;;;;;12.84;98.17;101490.09;5034027;28;20439;-59
2023/09/15 00:07:46;;;;;;;5.65;2.80;;;;;;;12.85;98.05;101485.75;5038875;28;20033;-59
2023/09/15 00:10:11;;;;;;;5.28;3.20;;;;;;;12.83;98.13;101488.34;5035626;28;20472;-60
2023/09/15 00:12:38;;;;;;;5.05;2.53;;;;;;;12.82;98.37;101481.44;5038661;28;20025;-60
2023/09/15 00:15:07;;;;;;;4.82;2.90;;;;;;;12.80;98.32;101484.91;5035574;28;20021;-59
2023/09/15 00:17:35;;;;;;;6.07;3.00;;;;;;;12.77;98.40;101483.19;5044600;28;20086;-59
2023/09/15 00:20:01;;;;;;;6.35;2.30;;;;;;;12.76;98.39;101491.00;5036452;28;20602;-59
2023/09/15 00:22:26;;;;;;;4.28;2.75;;;;;;;12.74;98.64;101482.34;5038671;28;20049;-59
2023/09/15 00:24:51;;;;;;;5.30;3.03;;;;;;;12.74;98.68;101490.13;5036091;28;20494;-62
2023/09/15 00:27:17;;;;;;;5.68;2.78;;;;;;;12.70;98.84;101478.91;5037645;28;20541;-62
2023/09/15 00:29:43;;;;;;;3.90;2.38;;;;;;;12.67;99.09;101484.09;5035924;28;20074;-62
2023/09/15 00:32:08;;;;;;;3.78;2.30;;;;;;;12.64;99.13;101484.16;5036423;28;20037;-62
2023/09/15 00:34:33;;;;;;;6.00;3.15;;;;;;;12.63;99.32;101481.56;5026735;28;20021;-61
2023/09/15 00:36:59;;;;;;;11.80;3.22;;;;;;;12.61;99.16;101476.38;5038463;28;20095;-62
2023/09/15 00:39:24;;;;;;;4.63;2.97;;;;;;;12.60;99.23;101479.84;5039461;28;20041;-62
2023/09/15 00:41:50;;;;;;;6.32;2.88;;;;;;;12.60;99.12;101478.97;5038666;28;20033;-62
2023/09/15 00:44:15;;;;;;;5.10;2.97;;;;;;;12.57;99.36;101477.25;5036904;28;20040;-62
2023/09/15 00:46:41;;;;;;;4.30;2.80;;;;;;;12.55;99.40;101473.81;5038471;28;20033;-58
2023/09/15 00:49:07;;;;;;;4.55;2.58;;;;;;;12.55;99.74;101470.38;5036920;28;20037;-58
2023/09/15 00:51:33;;;;;;;4.22;2.47;;;;;;;12.52;100.00;101470.38;5045871;28;20399;-60
2023/09/15 00:53:59;;;;;;;4.25;2.30;;;;;;;12.52;100.00;101480.75;5033527;28;20056;-59
2023/09/15 00:56:25;;;;;;;4.55;2.35;;;;;;;12.47;100.00;101475.56;5040968;28;20087;-59
2023/09/15 00:58:50;;;;;;;5.82;2.60;;;;;;;12.45;100.00;101473.00;5033497;28;20045;-59
2023/09/15 01:01:17;;;;;;;7.80;2.55;;;;;;;12.41;100.00;101468.69;5022315;28;20030;-59
2023/09/15 01:03:43;;;;;;;5.95;2.67;;;;;;;12.40;100.00;101471.31;5040645;28;20116;-58
2023/09/15 01:06:11;;;;;;;4.75;2.30;;;;;;;12.36;100.00;101470.44;5037779;28;20607;-58
2023/09/15 01:08:37;;;;;;;6.10;2.67;;;;;;;12.35;100.00;101467.84;5041951;28;20603;-58
2023/09/15 01:11:04;;;;;;;4.63;2.90;;;;;;;12.35;100.00;101470.44;5013391;28;20038;-58
2023/09/15 01:13:34;;;;;;;3.50;2.25;;;;;;;12.31;100.00;101463.56;5037587;28;20045;-58
2023/09/15 01:16:18;;;;;;;6.22;2.92;;;;;;;12.29;100.00;101454.91;5033158;28;20117;-58
2023/09/15 01:19:14;;;;;;;4.80;2.80;;;;;;;12.26;100.00;101458.38;5016295;28;20010;-58
2023/09/15 01:22:01;;;;;;;4.70;2.65;;;;;;;12.26;100.00;101455.78;5041961;28;20028;-58
2023/09/15 01:24:48;;;;;;;9.02;2.95;;;;;;;12.24;100.00;101460.13;5037461;28;20021;-58
2023/09/15 01:27:26;;;;;;;6.05;2.58;;;;;;;12.24;100.00;101459.25;5029964;28;20046;-58
2023/09/15 01:29:57;;;;;;;5.72;2.97;;;;;;;12.21;100.00;101451.50;5037980;28;20037;-58
2023/09/15 01:32:25;;;;;;;9.40;3.33;;;;;;;12.19;100.00;101448.94;5034561;28;20495;-58
2023/09/15 01:34:52;;;;;;;4.65;2.70;;;;;;;12.20;100.00;101448.03;5041693;28;20134;-59
2023/09/15 01:37:19;;;;;;;6.03;2.80;;;;;;;12.18;100.00;101443.75;5039776;28;20040;-58
2023/09/15 01:39:44;;;;;;;3.47;2.55;;;;;;;12.16;100.00;101453.25;5020924;28;20029;-59
2023/09/15 01:42:10;;;;;;;5.40;2.50;;;;;;;12.10;100.00;101441.19;5027469;28;20029;-58
2023/09/15 01:44:35;;;;;;;4.70;2.58;;;;;;;12.08;100.00;101448.09;5038535;28;20544;-58
2023/09/15 01:47:01;;;;;;;7.53;3.05;;;;;;;12.08;100.00;101448.09;5020321;28;20029;-58
2023/09/15 01:49:27;;;;;;;4.78;2.70;;;;;;;12.03;100.00;101442.06;5028519;28;20465;-58
2023/09/15 01:51:54;;;;;;;3.90;2.28;;;;;;;12.02;100.00;101450.69;5041183;28;20632;-58
2023/09/15 01:54:20;;;;;;;7.55;2.70;;;;;;;11.99;100.00;101444.69;5026670;28;20071;-66
2023/09/15 01:56:48;;;;;;;5.32;2.80;;;;;;;11.98;100.00;101448.13;5040282;28;20033;-66
2023/09/15 01:59:13;;;;;;;3.75;2.95;;;;;;;11.98;100.00;101446.41;5016092;28;20159;-66
2023/09/15 02:01:38;;;;;;;5.00;2.97;;;;;;;11.97;100.00;101451.59;5039113;28;20510;-67
2023/09/15 02:04:04;;;;;;;5.30;2.97;;;;;;;11.96;100.00;101450.72;5039913;28;20605;-59
2023/09/15 02:06:30;;;;;;;5.10;2.65;;;;;;;11.93;100.00;101453.31;5032466;28;20396;-59
2023/09/15 02:08:56;;;;;;;5.50;3.00;;;;;;;11.94;100.00;101446.41;5040956;28;20033;-59
2023/09/15 02:11:22;;;;;;;7.38;3.13;;;;;;;11.94;100.00;101443.81;5030812;28;20069;-59
2023/09/15 02:13:48;;;;;;;5.75;3.10;;;;;;;11.93;100.00;101447.31;5037088;28;20067;-58
2023/09/15 02:16:13;;;;;;;6.70;2.92;;;;;;;11.93;100.00;101453.31;5035763;28;20032;-66
2023/09/15 02:18:40;;;;;;;6.70;3.13;;;;;;;11.90;100.00;101448.16;5036235;28;20017;-58
2023/09/15 02:21:06;;;;;;;6.50;2.75;;;;;;;11.89;100.00;101449.91;5031045;28;20506;-58
2023/09/15 02:23:32;;;;;;;6.20;3.10;;;;;;;11.87;100.00;101453.38;5033808;28;20488;-58
2023/09/15 02:26:04;;;;;;;8.00;2.72;;;;;;;11.85;100.00;101442.13;5034940;28;20056;-58
2023/09/15 02:28:31;;;;;;;5.30;2.88;;;;;;;11.83;100.00;101439.56;5031726;28;20030;-58
2023/09/15 02:30:56;;;;;;;5.50;3.25;;;;;;;11.83;100.00;101433.50;5040708;28;20083;-58
2023/09/15 02:33:22;;;;;;;6.50;3.00;;;;;;;11.81;100.00;101443.03;5035960;28;20033;-58
2023/09/15 02:35:48;;;;;;;6.05;2.63;;;;;;;11.78;100.00;101446.44;5038534;28;20033;-58
2023/09/15 02:38:14;;;;;;;5.68;3.35;;;;;;;11.77;100.00;101438.69;5038456;28;20033;-58
2023/09/15 02:40:39;;;;;;;4.60;3.13;;;;;;;11.73;100.00;101432.66;5036710;28;20049;-58
2023/09/15 02:43:04;;;;;;;8.18;3.10;;;;;;;11.73;100.00;101429.19;5038373;28;20032;-58
2023/09/15 02:45:34;;;;;;;4.22;3.10;;;;;;;11.71;100.00;101428.34;5026873;28;20029;-58
2023/09/15 02:47:59;;;;;;;6.53;2.90;;;;;;;11.67;100.00;101421.44;5031181;28;20511;-58
2023/09/15 02:50:24;;;;;;;6.70;3.08;;;;;;;11.66;100.00;101432.69;5037116;28;20037;-58
2023/09/15 02:52:50;;;;;;;6.30;3.13;;;;;;;11.64;100.00;101427.50;5035662;28;20098;-58
2023/09/15 02:55:15;;;;;;;5.47;3.20;;;;;;;11.64;100.00;101429.22;5037759;28;20115;-58
2023/09/15 02:57:40;;;;;;;6.03;2.92;;;;;;;11.60;100.00;101427.53;5033719;28;20028;-58
2023/09/15 03:00:08;;;;;;;8.38;3.22;;;;;;;11.56;100.00;101426.66;5039417;28;20032;-58
2023/09/15 03:02:33;;;;;;;5.07;3.13;;;;;;;11.57;100.00;101425.81;5032883;28;20428;-58
2023/09/15 03:04:59;;;;;;;9.45;3.63;;;;;;;11.58;100.00;101421.47;5034890;28;20143;-58
2023/09/15 03:07:24;;;;;;;7.10;3.13;;;;;;;11.55;100.00;101421.47;5035829;28;20087;-58
2023/09/15 03:09:49;;;;;;;7.45;3.55;;;;;;;11.54;100.00;101424.94;5035816;28;20037;-58
2023/09/15 03:12:15;;;;;;;6.88;3.22;;;;;;;11.52;100.00;101421.47;5039384;28;20037;-58
2023/09/15 03:14:40;;;;;;;8.13;3.22;;;;;;;11.49;100.00;101424.06;5027326;28;20048;-62
2023/09/15 03:17:06;;;;;;;8.05;3.67;;;;;;;11.46;100.00;101426.66;5027369;28;20418;-62
2023/09/15 03:19:32;;;;;;;9.02;3.45;;;;;;;11.45;100.00;101419.78;5030416;28;20121;-61
2023/09/15 03:21:57;;;;;;;6.47;3.33;;;;;;;11.43;100.00;101419.75;5039967;28;20045;-61
2023/09/15 03:24:23;;;;;;;9.30;4.00;;;;;;;11.41;100.00;101408.53;5037415;28;20033;-62
2023/09/15 03:26:48;;;;;;;5.85;3.60;;;;;;;11.42;100.00;101409.41;5033607;28;20091;-62
2023/09/15 03:29:13;;;;;;;6.35;3.70;;;;;;;11.37;100.00;101401.63;5035303;28;20075;-62
2023/09/15 03:31:39;;;;;;;6.47;3.50;;;;;;;11.36;100.00;101407.69;5032758;28;20496;-62
2023/09/15 03:34:04;;;;;;;8.38;3.92;;;;;;;11.35;100.00;101401.63;5031761;28;20032;-61
2023/09/15 03:36:30;;;;;;;6.70;3.47;;;;;;;11.33;100.00;101405.97;5031995;28;20029;-62
2023/09/15 03:38:56;;;;;;;5.95;3.38;;;;;;;11.32;100.00;101401.66;5042093;28;20513;-59
2023/09/15 03:41:24;;;;;;;6.13;3.35;;;;;;;11.31;100.00;101392.16;5036816;28;20025;-59
2023/09/15 03:43:49;;;;;;;7.78;3.55;;;;;;;11.29;100.00;101396.47;5039710;28;20060;-66
2023/09/15 03:46:15;;;;;;;7.15;3.55;;;;;;;11.27;100.00;101398.22;5034135;28;20495;-66
2023/09/15 03:48:40;;;;;;;7.75;3.47;;;;;;;11.27;100.00;101402.53;5034784;28;20086;-66
2023/09/15 03:51:06;;;;;;;11.02;4.15;;;;;;;11.24;100.00;101394.75;5043836;28;20098;-66
2023/09/15 03:53:31;;;;;;;9.57;4.18;;;;;;;11.22;100.00;101397.34;5035755;28;20041;-66
2023/09/15 03:55:57;;;;;;;5.65;3.60;;;;;;;11.22;100.00;101394.75;5044131;28;20029;-66
2023/09/15 03:58:22;;;;;;;10.40;3.55;;;;;;;11.19;100.00;101399.06;5035529;28;20034;-66
2023/09/15 04:00:47;;;;;;;6.38;3.20;;;;;;;11.17;100.00;101391.31;5018009;28;20128;-66
2023/09/15 04:03:13;;;;;;;7.32;3.45;;;;;;;11.17;100.00;101396.47;5032809;28;20419;-66
2023/09/15 04:05:38;;;;;;;4.63;3.08;;;;;;;11.17;100.00;101396.47;5035580;28;20032;-66
2023/09/15 04:08:03;;;;;;;4.47;3.20;;;;;;;11.17;100.00;101400.78;5040610;28;20044;-66
2023/09/15 04:10:29;;;;;;;5.80;3.53;;;;;;;11.14;100.00;101399.06;5036957;28;20589;-66
2023/09/15 04:12:54;;;;;;;4.72;2.90;;;;;;;11.13;100.00;101399.06;5044216;28;20044;-66
2023/09/15 04:15:20;;;;;;;6.38;3.25;;;;;;;11.10;100.00;101388.75;5020567;28;20025;-66
2023/09/15 04:17:45;;;;;;;5.90;3.33;;;;;;;11.08;100.00;101393.03;5040997;28;20095;-66
2023/09/15 04:20:11;;;;;;;9.55;3.22;;;;;;;11.06;100.00;101392.19;5034406;28;20064;-66
2023/09/15 04:22:37;;;;;;;11.55;3.97;;;;;;;11.05;100.00;101390.44;5036615;28;20449;-66
2023/09/15 04:25:04;;;;;;;7.32;3.30;;;;;;;11.03;100.00;101387.88;5035385;28;20036;-66
2023/09/15 04:27:31;;;;;;;6.47;3.22;;;;;;;11.01;100.00;101388.75;5015505;28;20059;-66
2023/09/15 04:29:57;;;;;;;9.10;3.22;;;;;;;10.98;100.00;101389.56;5037343;28;20653;-65
2023/09/15 04:32:23;;;;;;;7.07;3.20;;;;;;;10.96;100.00;101396.47;5030270;28;20120;-66
2023/09/15 04:34:53;;;;;;;7.90;3.47;;;;;;;10.95;100.00;101391.31;5037233;28;20049;-66
2023/09/15 04:37:20;;;;;;;7.18;3.85;;;;;;;10.94;100.00;101395.63;5038421;28;20081;-66
2023/09/15 04:39:47;;;;;;;5.97;3.45;;;;;;;10.93;100.00;101399.06;5041339;28;20033;-66
2023/09/15 04:42:12;;;;;;;6.07;3.60;;;;;;;10.92;100.00;101402.50;5024869;28;20047;-66
2023/09/15 04:44:38;;;;;;;8.88;3.40;;;;;;;10.92;100.00;101388.75;5036444;28;20112;-66
2023/09/15 04:47:04;;;;;;;6.88;3.58;;;;;;;10.93;100.00;101399.06;5025556;28;20063;-66
2023/09/15 04:49:29;;;;;;;8.82;4.20;;;;;;;10.93;100.00;101399.06;5038206;28;20048;-66
2023/09/15 04:51:55;;;;;;;7.82;3.38;;;;;;;10.94;100.00;101410.28;5029208;28;20083;-59
2023/09/15 04:54:20;;;;;;;6.80;3.28;;;;;;;10.95;100.00;101406.84;5038460;28;20033;-59
2023/09/15 04:56:46;;;;;;;5.82;3.25;;;;;;;10.94;100.00;101397.34;5017643;28;20590;-59
2023/09/15 04:59:18;;;;;;;5.07;3.47;;;;;;;10.93;100.00;101399.06;5040387;28;20041;-59
2023/09/15 05:01:44;;;;;;;6.70;3.58;;;;;;;10.95;100.00;101393.91;5036177;28;20033;-59
2023/09/15 05:04:10;;;;;;;8.27;3.70;;;;;;;10.94;100.00;101405.97;5038267;28;20452;-66
2023/09/15 05:06:36;;;;;;;6.82;3.90;;;;;;;10.96;100.00;101409.41;5033685;28;20053;-66
2023/09/15 05:09:05;;;;;;;9.50;4.63;;;;;;;10.97;100.00;101411.16;5046037;28;20033;-66
2023/09/15 05:11:31;;;;;;;5.88;3.83;;;;;;;10.97;100.00;101408.56;5041667;28;20041;-65
2023/09/15 05:13:56;;;;;;;9.65;3.38;;;;;;;11.00;100.00;101412.88;5040116;28;20381;-66
2023/09/15 05:16:23;;;;;;;9.05;3.70;;;;;;;11.01;100.00;101412.03;5040423;28;20033;-66
2023/09/15 05:18:48;;;;;;;6.03;3.97;;;;;;;11.02;100.00;101418.91;5031893;28;20017;-66
2023/09/15 05:21:14;;;;;;;8.52;3.72;;;;;;;11.02;100.00;101417.19;5041181;28;20064;-66
2023/09/15 05:23:39;;;;;;;5.68;3.33;;;;;;;11.04;100.00;101420.63;5035324;28;20029;-66
2023/09/15 05:26:04;;;;;;;8.90;4.15;;;;;;;11.04;100.00;101418.03;5033234;28;20112;-66
2023/09/15 05:28:30;;;;;;;8.25;3.72;;;;;;;11.05;100.00;101414.59;5039287;28;20097;-58
2023/09/15 05:30:59;;;;;;;11.10;3.50;;;;;;;11.08;100.00;101412.00;5020155;28;20106;-58
2023/09/15 05:33:25;;;;;;;7.82;3.72;;;;;;;11.11;100.00;101416.31;5037053;28;20539;-58
2023/09/15 05:35:57;;;;;;;6.97;3.63;;;;;;;11.15;100.00;101418.91;5038016;28;20055;-58
2023/09/15 05:38:23;;;;;;;8.02;3.92;;;;;;;11.17;100.00;101416.31;5028966;28;20045;-58
2023/09/15 05:40:49;;;;;;;9.85;3.72;;;;;;;11.20;100.00;101414.59;5038344;28;20651;-58
2023/09/15 05:43:14;;;;;;;12.93;4.45;;;;;;;11.23;100.00;101417.19;5039049;28;20032;-58
2023/09/15 05:45:39;;;;;;;7.47;3.45;;;;;;;11.27;100.00;101412.88;5028596;28;20033;-58
2023/09/15 05:48:05;;;;;;;6.78;4.05;;;;;;;11.32;100.00;101416.31;5019020;28;20067;-58
2023/09/15 05:50:31;;;;;;;8.23;3.80;;;;;;;11.34;100.00;101415.44;5031664;28;20037;-58
2023/09/15 05:52:56;;;;;;;13.02;4.80;;;;;;;11.36;100.00;101407.69;5038496;28;20499;-59
2023/09/15 05:55:21;;;;;;;12.32;4.47;;;;;;;11.40;100.00;101408.50;5039660;28;20049;-58
2023/09/15 05:57:47;;;;;;;9.60;4.82;;;;;;;11.41;100.00;101405.94;5036911;28;20491;-58
2023/09/15 06:00:12;;;;;;;10.82;4.78;;;;;;;11.47;100.00;101410.28;5038473;28;20057;-58
2023/09/15 06:02:39;;;;;;;8.45;5.30;;;;;;;11.49;100.00;101403.34;5025783;28;20143;-62
2023/09/15 06:05:05;;;;;;;10.77;5.68;;;;;;;11.53;100.00;101413.72;5035393;28;20061;-61
2023/09/15 06:07:30;;;;;;;11.98;5.90;;;;;;;11.56;100.00;101405.94;5038787;28;20029;-61
2023/09/15 06:09:55;;;;;;;9.68;6.40;;;;;;;11.62;100.00;101407.66;5036632;28;20068;-61
2023/09/15 06:12:21;;;;;;;16.55;6.40;;;;;;;11.65;100.00;101399.88;5042709;28;20033;-59
2023/09/15 06:14:46;;;;;;;12.55;5.90;;;;;;;11.71;100.00;101399.88;5036271;28;20446;-59
2023/09/15 06:17:12;;;;;;;10.20;6.13;;;;;;;11.75;100.00;101402.44;5039449;28;20037;-59
2023/09/15 06:19:37;;;;;;;9.90;5.55;;;;;;;11.78;100.00;101405.00;5035184;28;20391;-59
2023/09/15 06:22:03;;;;;;;8.40;4.80;;;;;;;11.84;100.00;101399.81;5039601;28;20022;-59
2023/09/15 06:24:28;;;;;;;10.07;4.97;;;;;;;11.91;100.00;101400.66;5014371;28;20033;-59
2023/09/15 06:26:54;;;;;;;11.80;4.68;;;;;;;11.95;99.84;101402.38;5031641;28;20034;-59
2023/09/15 06:29:21;;;;;;;7.28;4.30;;;;;;;11.94;99.25;101403.25;5038934;28;20470;-59
2023/09/15 06:31:46;;;;;;;10.98;4.55;;;;;;;11.98;98.78;101402.38;5033932;28;20518;-61
2023/09/15 06:34:11;;;;;;;8.63;4.78;;;;;;;12.03;98.66;101398.03;5037538;28;20037;-62
2023/09/15 06:36:39;;;;;;;12.23;4.57;;;;;;;12.07;98.95;101396.28;5035870;28;20028;-61
2023/09/15 06:39:06;;;;;;;13.60;5.70;;;;;;;12.14;98.45;101393.66;5035173;28;20025;-62
2023/09/15 06:41:32;;;;;;;8.75;4.57;;;;;;;12.22;98.28;101394.50;5036005;28;20045;-62
2023/09/15 06:43:57;;;;;;;19.25;5.03;;;;;;;12.32;97.69;101388.38;5035436;28;20118;-66
2023/09/15 06:46:23;;;;;;;9.57;5.05;;;;;;;12.41;97.13;101390.03;5032404;28;20740;-66
2023/09/15 06:48:48;;;;;;;9.90;4.40;;;;;;;12.54;96.32;101393.44;5034439;28;20025;-66
2023/09/15 06:51:14;;;;;;;11.05;4.35;;;;;;;12.61;96.85;101393.41;4997231;28;20031;-66
2023/09/15 06:53:39;;;;;;;12.70;4.72;;;;;;;12.74;96.26;101397.59;5033033;28;20029;-67
2023/09/15 06:56:05;;;;;;;9.00;3.95;;;;;;;12.84;95.57;101395.81;5034728;28;20061;-66
2023/09/15 06:58:30;;;;;;;14.90;4.30;;;;;;;12.89;94.01;101396.63;5014771;28;20038;-66
2023/09/15 07:00:56;;;;;;;9.85;4.32;;;;;;;12.98;94.33;101387.03;5040135;28;20033;-66
2023/09/15 07:03:23;;;;;;;9.05;3.85;;;;;;;13.07;94.07;101388.72;5031063;28;20029;-66
2023/09/15 07:05:49;;;;;;;12.80;3.95;;;;;;;13.14;93.47;101392.16;5029511;28;20510;-59
2023/09/15 07:08:14;;;;;;;11.25;4.57;;;;;;;13.24;93.67;101386.84;5037646;28;20025;-59
2023/09/15 07:10:40;;;;;;;9.52;4.20;;;;;;;13.33;93.79;101384.16;5034308;28;20036;-59
2023/09/15 07:13:05;;;;;;;8.18;4.82;;;;;;;13.43;94.24;101387.53;5039350;28;20065;-59
2023/09/15 07:15:34;;;;;;;6.32;3.30;;;;;;;13.52;93.51;101374.44;5034813;28;20025;-59
2023/09/15 07:17:59;;;;;;;9.98;4.90;;;;;;;13.63;93.42;101379.50;5046369;28;20117;-59
2023/09/15 07:20:25;;;;;;;8.30;3.47;;;;;;;13.68;92.21;101376.00;5036774;28;20563;-59
2023/09/15 07:22:50;;;;;;;9.27;3.47;;;;;;;13.78;92.68;101372.41;5039225;28;20037;-59
2023/09/15 07:25:16;;;;;;;8.48;3.80;;;;;;;13.82;91.59;101368.06;5035496;28;20064;-60
2023/09/15 07:27:41;;;;;;;7.95;3.58;;;;;;;13.88;92.10;101368.84;5039436;28;20458;-59
2023/09/15 07:30:10;;;;;;;6.03;3.30;;;;;;;14.00;92.48;101373.03;5043592;28;20040;-66
2023/09/15 07:32:35;;;;;;;8.13;3.97;;;;;;;14.09;91.93;101367.72;5034648;28;20041;-58
2023/09/15 07:35:01;;;;;;;12.15;3.72;;;;;;;14.15;91.52;101366.75;5042566;28;20052;-58
2023/09/15 07:37:26;;;;;;;8.40;4.32;;;;;;;14.22;90.99;101366.66;5039620;28;20407;-62
2023/09/15 07:39:51;;;;;;;9.50;4.47;;;;;;;14.34;90.76;101373.41;5035053;28;20053;-66
2023/09/15 07:42:17;;;;;;;7.10;3.58;;;;;;;14.40;89.80;101363.81;5029253;28;20483;-66
2023/09/15 07:44:42;;;;;;;8.48;3.58;;;;;;;14.48;89.85;101361.97;5036998;28;20037;-66
2023/09/15 07:47:12;;;;;;;9.05;3.50;;;;;;;14.55;89.73;101363.59;5033597;28;20041;-66
2023/09/15 07:49:37;;;;;;;9.60;3.38;;;;;;;14.69;89.40;101359.94;5020034;28;20025;-62
2023/09/15 07:52:03;;;;;;;8.40;4.22;;;;;;;14.78;88.58;101352.00;5040438;28;20509;-62
2023/09/15 07:54:29;;;;;;;10.18;4.05;;;;;;;14.86;89.04;101357.91;5040468;28;20025;-62
2023/09/15 07:56:54;;;;;;;8.77;3.13;;;;;;;14.96;88.67;101362.09;5039649;28;20116;-63
2023/09/15 07:59:20;;;;;;;9.85;3.47;;;;;;;15.05;88.11;101354.09;5040080;28;20036;-62
2023/09/15 08:01:45;;;;;;;11.65;3.35;;;;;;;15.14;87.97;101353.94;5037636;28;20037;-62
2023/09/15 08:04:11;;;;;;;8.75;3.25;;;;;;;15.21;86.22;101337.34;5042015;28;20044;-62
2023/09/15 08:06:36;;;;;;;13.98;3.25;;;;;;;15.25;86.73;101341.63;5034716;28;20034;-62
2023/09/15 08:09:04;;;;;;;10.25;3.00;;;;;;;15.30;85.89;101337.16;5043461;28;20037;-65
2023/09/15 08:11:34;;;;;;;5.35;2.70;;;;;;;15.40;86.29;101346.53;5039679;28;20069;-62
2023/09/15 08:14:00;;;;;;;5.47;3.10;;;;;;;15.47;86.59;101339.44;5034642;28;20057;-60
2023/09/15 08:16:25;;;;;;;7.65;3.10;;;;;;;15.61;86.68;101346.09;5039599;28;20060;-60
2023/09/15 08:18:50;;;;;;;8.52;3.58;;;;;;;15.80;84.91;101331.00;5037702;28;20017;-60
2023/09/15 08:21:16;;;;;;;4.85;2.83;;;;;;;15.95;82.54;101315.03;5038419;28;20472;-60
2023/09/15 08:23:41;;;;;;;8.45;3.50;;;;;;;16.03;83.13;101320.06;5036429;28;20120;-60
2023/09/15 08:26:07;;;;;;;7.40;3.35;;;;;;;16.20;83.26;101324.03;5020970;28;20102;-59
2023/09/15 08:28:32;;;;;;;8.23;2.95;;;;;;;16.33;82.00;101308.94;5032614;28;20403;-59
2023/09/15 08:30:57;;;;;;;8.18;3.22;;;;;;;16.43;81.93;101306.97;5040354;28;20078;-59
2023/09/15 08:33:23;;;;;;;10.77;3.03;;;;;;;16.59;80.94;101305.72;5032922;28;20032;-66
2023/09/15 08:35:48;;;;;;;6.97;2.83;;;;;;;16.67;80.83;101311.63;5035349;28;20067;-60
2023/09/15 08:38:14;;;;;;;4.20;2.50;;;;;;;16.71;81.65;101316.72;5021728;28;20677;-60
2023/09/15 08:40:59;;;;;;;6.47;2.78;;;;;;;16.85;79.15;101288.56;5036347;28;20442;-60
2023/09/15 08:43:25;;;;;;;6.63;3.03;;;;;;;17.02;77.94;101268.97;5039644;28;20030;-60
2023/09/15 08:45:52;;;;;;;9.80;3.08;;;;;;;17.15;76.90;101270.34;5040201;28;20435;-60
2023/09/15 08:48:23;;;;;;;8.35;2.72;;;;;;;17.24;76.33;101275.34;5038303;28;20408;-60
2023/09/15 08:50:51;;;;;;;7.05;3.20;;;;;;;17.35;75.34;101260.19;5038899;28;20037;-60
2023/09/15 08:53:18;;;;;;;4.90;3.05;;;;;;;17.42;76.16;101273.03;5033494;28;20037;-60
2023/09/15 08:55:44;;;;;;;9.40;2.90;;;;;;;17.59;74.11;101251.66;5045079;28;20033;-60
2023/09/15 08:58:10;;;;;;;8.00;3.03;;;;;;;17.62;74.46;101261.16;5038190;28;20557;-60
2023/09/15 09:00:36;;;;;;;7.05;2.72;;;;;;;17.68;74.58;101269.69;5036877;28;20029;-60
2023/09/15 09:03:04;;;;;;;5.88;3.00;;;;;;;17.76;74.92;101272.94;5033568;28;20385;-60
2023/09/15 09:05:31;;;;;;;9.35;2.75;;;;;;;17.94;73.08;101248.00;5036120;28;20506;-60
2023/09/15 09:07:57;;;;;;;5.78;2.90;;;;;;;17.99;73.99;101263.56;5043732;28;20067;-60
2023/09/15 09:10:25;;;;;;;6.78;2.75;;;;;;;18.02;74.24;101280.00;5034379;28;20117;-61
2023/09/15 09:12:50;;;;;;;4.82;2.30;;;;;;;18.06;74.96;101284.25;5042966;28;20079;-60
2023/09/15 09:15:17;;;;;;;7.55;2.45;;;;;;;18.18;74.30;101276.03;5039851;28;20033;-59
2023/09/15 09:17:42;;;;;;;4.38;2.55;;;;;;;18.27;74.25;101274.88;5042881;28;20037;-58
2023/09/15 09:20:08;;;;;;;8.57;2.45;;;;;;;18.55;70.78;101225.97;5033932;28;20060;-59
2023/09/15 09:22:34;;;;;;;5.28;2.30;;;;;;;18.61;71.34;101241.44;5036744;28;20151;-60
2023/09/15 09:25:00;;;;;;;4.57;2.10;;;;;;;18.80;69.70;101208.47;5038625;28;20064;-60
2023/09/15 09:27:35;;;;;;;4.35;1.70;;;;;;;18.97;69.83;101226.25;5035517;28;20059;-60
2023/09/15 09:30:00;;;;;;;;;;;;;;;18.98;70.34;101241.06;5011330;28;20037;-67
2023/09/15 09:32:26;;;;;;;5.97;2.03;;;;;;;19.06;68.03;101194.47;5004254;28;19921;-59
2023/09/15 09:34:51;;;;;;;4.22;2.05;;;;;;;19.20;67.91;101204.47;5019042;28;20084;-59
2023/09/15 09:37:17;;;;;;;5.40;2.28;;;;;;;19.29;68.31;101210.25;5011430;28;20159;-59
2023/09/15 09:39:46;;;;;;;9.32;2.63;;;;;;;19.40;67.87;101213.31;5012949;28;20093;-60
2023/09/15 09:42:11;;;;;;;7.07;2.88;;;;;;;19.38;67.93;101207.28;5007091;28;20515;-60
2023/09/15 09:44:37;;;;;;;4.95;2.33;;;;;;;19.45;68.37;101213.13;5010459;28;20065;-60
2023/09/15 09:47:07;;;;;;;4.38;2.22;;;;;;;19.60;66.90;101181.94;5026048;28;20072;-60
2023/09/15 09:49:34;;;;;;;4.88;2.30;;;;;;;19.69;66.78;101179.84;5032600;28;20455;-60
2023/09/15 09:52:00;;;;;;;5.63;2.50;;;;;;;19.70;65.88;101177.19;5033062;28;20037;-60
2023/09/15 09:54:28;;;;;;;5.13;2.25;;;;;;;19.77;65.09;101164.69;5038240;28;20031;-60
2023/09/15 09:56:54;;;;;;;6.25;2.53;;;;;;;19.80;65.54;101168.06;5038368;28;20067;-60
2023/09/15 09:59:21;;;;;;;7.05;2.78;;;;;;;19.95;65.24;101161.34;5041774;28;20033;-60
2023/09/15 10:01:46;;;;;;;5.35;2.30;;;;;;;20.06;63.15;101133.75;5031120;28;20071;-60
2023/09/15 10:04:12;;;;;;;4.93;2.30;;;;;;;20.15;61.17;101096.63;5035560;28;20088;-60
2023/09/15 10:06:38;;;;;;;3.45;1.80;;;;;;;20.25;61.02;101101.47;5031629;28;20451;-60
2023/09/15 10:09:09;;;;;;;7.45;2.63;;;;;;;20.30;61.65;101118.75;5041031;28;20083;-60
2023/09/15 10:11:36;;;;;;;7.28;2.47;;;;;;;20.34;60.82;101103.69;5019798;28;20064;-60
2023/09/15 10:14:03;;;;;;;4.25;2.00;;;;;;;20.42;59.50;101072.72;5036593;28;20053;-66
2023/09/15 10:16:31;;;;;;;5.30;1.92;;;;;;;20.53;60.08;101091.47;5038916;28;20033;-66
2023/09/15 10:18:58;;;;;;;4.13;2.10;;;;;;;20.59;58.68;101067.56;5037025;28;20091;-66
2023/09/15 10:21:25;;;;;;;3.78;1.75;;;;;;;20.62;59.42;101078.81;5038724;28;20025;-66
2023/09/15 10:24:05;;;;;;;5.55;2.08;;;;;;;20.67;59.98;101086.47;5034521;28;20026;-66
2023/09/15 10:26:32;;;;;;;3.88;2.03;;;;;;;20.75;58.83;101065.16;5033102;28;20045;-66
2023/09/15 10:28:57;;;;;;;4.63;2.35;;;;;;;20.81;55.50;101017.56;5038000;28;20029;-67
2023/09/15 10:31:23;;;;;;;2.75;1.92;;;;;;;20.85;57.14;101048.03;5035850;28;20033;-67
2023/09/15 10:33:50;;;;;;;5.25;1.90;;;;;;;20.94;57.87;101058.13;5013900;28;20427;-66
2023/09/15 10:36:16;;;;;;;4.13;1.70;;;;;;;20.97;58.08;101058.81;5028735;28;20100;-66
2023/09/15 10:38:41;;;;;;;2.88;1.90;;;;;;;20.97;57.48;101053.56;5031656;28;20160;-66
2023/09/15 10:41:09;;;;;;;5.43;1.73;;;;;;;21.07;58.11;101064.53;5034544;28;20037;-60
2023/09/15 10:43:35;;;;;;;4.90;2.30;;;;;;;21.13;56.77;101035.31;5035300;28;20051;-62
2023/09/15 10:46:03;;;;;;;4.32;1.77;;;;;;;21.18;55.79;101010.50;5030100;28;20541;-59
2023/09/15 10:48:40;;;;;;;3.60;2.15;;;;;;;21.36;55.75;101015.78;5037632;28;20025;-60
2023/09/15 10:51:08;;;;;;;4.13;1.98;;;;;;;21.41;55.78;101024.31;5017497;28;20555;-60
2023/09/15 10:53:43;;;;;;;2.55;1.67;;;;;;;21.49;54.00;101004.59;5032418;28;20095;-61
2023/09/15 10:56:09;;;;;;;3.40;1.88;;;;;;;21.52;55.37;101035.16;5037266;28;20040;-67
2023/09/15 10:58:35;;;;;;;4.35;2.10;;;;;;;21.74;53.81;101006.88;5031226;28;20065;-60
2023/09/15 11:01:01;;;;;;;3.83;1.60;;;;;;;21.81;54.31;101008.28;5035155;28;20033;-61
2023/09/15 11:03:27;;;;;;;2.58;1.88;;;;;;;21.85;53.08;100978.22;5028447;28;20030;-62
2023/09/15 11:05:55;;;;;;;5.95;2.72;;;;;;;21.91;53.44;100985.81;5032650;28;20039;-66
2023/09/15 11:08:21;;;;;;;3.58;1.90;;;;;;;21.92;53.82;100994.56;5038148;28;20029;-67
2023/09/15 11:10:46;;;;;;;3.63;1.98;;;;;;;22.00;52.69;100976.59;5033536;28;20037;-62
2023/09/15 11:13:12;;;;;;;4.68;2.13;;;;;;;22.15;52.74;100984.53;5038402;28;20527;-60
2023/09/15 11:15:37;;;;;;;5.03;2.25;;;;;;;22.15;51.97;100962.63;5037432;28;20040;-60
2023/09/15 11:18:04;;;;;;;3.65;1.63;;;;;;;22.14;51.27;100953.03;5037763;28;20029;-60